Time;durP1;ratioP1;P1;durP2;ratioP2;P2;SDS_P1;SDS_P2;PMS_P1;PMS_P2;Temp;Humidity;BMP_temperature;BMP_pressure;BME280_temperature;BME280_humidity;BME280_pressure;Samples;Min_cycle;Max_cycle;Signal;HPM_P1;HPM_P2
2021/07/11 00:00:41;;;;;;;;;;;27.10;99.90;;;;;;1829661;77;20208;-90
2021/07/11 00:03:11;;;;;;;;;;;27.10;99.90;;;;;;1847825;76;20177;-90
2021/07/11 00:05:40;;;;;;;;;;;27.10;99.90;;;;;;1822189;77;20160;-90
2021/07/11 00:08:10;;;;;;;;;;;27.10;99.90;;;;;;1850659;76;20245;-90
2021/07/11 00:10:39;;;;;;;;;;;27.10;99.80;;;;;;1820667;77;20287;-90
2021/07/11 00:13:09;;;;;;;;;;;27.20;99.80;;;;;;1848695;76;20541;-90
2021/07/11 00:15:39;;;;;;;;;;;27.20;99.80;;;;;;1842046;77;20158;-90
2021/07/11 00:18:11;;;;;;;;;;;27.20;99.90;;;;;;1839948;76;20235;-90
2021/07/11 00:20:40;;;;;;;;;;;27.30;99.90;;;;;;1846972;76;20180;-89
2021/07/11 00:23:09;;;;;;;;;;;27.30;99.80;;;;;;1840219;76;20242;-90
2021/07/11 00:25:39;;;;;;;;;;;27.40;99.70;;;;;;1845049;76;20229;-92
2021/07/11 00:28:09;;;;;;;;;;;27.40;99.60;;;;;;1808051;77;20141;-91
2021/07/11 00:30:38;;;;;;;;;;;27.40;99.60;;;;;;1806392;78;20227;-90
2021/07/11 00:33:09;;;;;;;;;;;27.40;99.80;;;;;;1800519;78;20156;-88
2021/07/11 00:35:38;;;;;;;;;;;27.50;99.90;;;;;;1803437;78;20220;-88
2021/07/11 00:38:08;;;;;;;;;;;27.50;99.90;;;;;;1800663;78;20184;-87
2021/07/11 00:40:39;;;;;;;;;;;27.60;99.90;;;;;;1801840;78;20139;-89
2021/07/11 00:43:10;;;;;;;;;;;27.60;99.80;;;;;;1801509;78;20218;-88
2021/07/11 00:45:40;;;;;;;;;;;27.70;99.80;;;;;;1839403;76;20158;-89
2021/07/11 00:48:10;;;;;;;;;;;27.70;99.30;;;;;;1854595;76;20135;-89
2021/07/11 00:50:40;;;;;;;;;;;27.70;99.20;;;;;;1822636;76;20178;-89
2021/07/11 00:53:10;;;;;;;;;;;27.80;99.20;;;;;;1836884;76;20237;-88
2021/07/11 00:55:40;;;;;;;;;;;27.80;99.20;;;;;;1825334;77;20177;-89
2021/07/11 00:58:10;;;;;;;;;;;27.80;99.20;;;;;;1840498;76;20496;-90
2021/07/11 01:00:41;;;;;;;;;;;27.80;99.20;;;;;;1814946;77;20136;-89
2021/07/11 01:03:12;;;;;;;;;;;27.80;99.20;;;;;;1831467;76;20196;-89
2021/07/11 01:05:42;;;;;;;;;;;27.80;99.20;;;;;;1819249;78;20194;-90
2021/07/11 01:08:13;;;;;;;;;;;27.80;99.10;;;;;;1841237;76;20263;-89
2021/07/11 01:10:44;;;;;;;;;;;27.90;99.10;;;;;;1793097;77;20269;-88
2021/07/11 01:13:15;;;;;;;;;;;27.90;99.10;;;;;;1822870;76;20274;-89
2021/07/11 01:15:46;;;;;;;;;;;27.90;99.10;;;;;;1832162;76;20214;-89
2021/07/11 01:18:17;;;;;;;;;;;28.00;99.10;;;;;;1852811;76;20295;-89
2021/07/11 01:20:48;;;;;;;;;;;28.00;99.00;;;;;;1840361;76;20324;-89
2021/07/11 01:23:19;;;;;;;;;;;28.00;98.90;;;;;;1831155;76;20219;-89
2021/07/11 01:25:49;;;;;;;;;;;28.00;98.70;;;;;;1837983;76;20209;-89
2021/07/11 01:28:20;;;;;;;;;;;28.00;98.70;;;;;;1820820;76;20427;-89
2021/07/11 01:30:51;;;;;;;;;;;28.10;98.80;;;;;;1827415;76;20493;-90
2021/07/11 01:33:22;;;;;;;;;;;28.10;98.30;;;;;;1814534;78;20181;-89
2021/07/11 01:35:52;;;;;;;;;;;28.20;98.50;;;;;;1819870;76;20962;-88
2021/07/11 01:38:23;;;;;;;;;;;28.30;98.10;;;;;;1802841;78;20271;-90
2021/07/11 01:40:53;;;;;;;;;;;28.40;97.90;;;;;;1847251;76;20208;-90
2021/07/11 01:43:23;;;;;;;;;;;28.50;98.00;;;;;;1837745;76;20125;-89
2021/07/11 01:45:54;;;;;;;;;;;28.60;98.00;;;;;;1834430;76;20189;-89
2021/07/11 01:48:23;;;;;;;;;;;28.70;97.60;;;;;;1839736;76;20356;-89
2021/07/11 01:50:56;;;;;;;;;;;28.80;96.50;;;;;;1829186;76;20220;-88
2021/07/11 01:53:27;;;;;;;;;;;28.70;97.10;;;;;;1818748;76;20218;-89
2021/07/11 01:55:57;;;;;;;;;;;28.70;97.30;;;;;;1839328;76;20197;-87
2021/07/11 01:58:27;;;;;;;;;;;28.70;96.90;;;;;;1840252;76;20208;-80
2021/07/11 02:00:57;;;;;;;;;;;28.80;97.00;;;;;;1832782;76;20202;-80
2021/07/11 02:03:27;;;;;;;;;;;28.80;97.00;;;;;;1823948;76;20255;-80
2021/07/11 02:05:57;;;;;;;;;;;29.00;96.90;;;;;;1831116;76;20183;-80
2021/07/11 02:08:27;;;;;;;;;;;29.00;96.40;;;;;;1794540;78;20208;-79
2021/07/11 02:10:57;;;;;;;;;;;29.00;96.10;;;;;;1781868;79;20195;-80
2021/07/11 02:13:28;;;;;;;;;;;29.00;95.80;;;;;;1836347;76;20133;-79
2021/07/11 02:15:59;;;;;;;;;;;28.80;96.40;;;;;;1853965;76;20203;-78
2021/07/11 02:18:30;;;;;;;;;;;28.80;96.20;;;;;;1845641;76;20194;-79
2021/07/11 02:21:00;;;;;;;;;;;28.70;96.40;;;;;;1838618;77;20171;-79
2021/07/11 02:23:30;;;;;;;;;;;28.70;96.40;;;;;;1837824;76;20227;-80
2021/07/11 02:26:01;;;;;;;;;;;28.60;96.40;;;;;;1797269;77;20253;-80
2021/07/11 02:28:32;;;;;;;;;;;28.60;96.80;;;;;;1773431;78;20127;-80
2021/07/11 02:31:02;;;;;;;;;;;28.50;97.00;;;;;;1758712;79;20169;-80
2021/07/11 02:33:38;;;;;;;;;;;28.50;97.30;;;;;;1807202;77;20562;-80
2021/07/11 02:36:07;;;;;;;;;;;28.70;97.20;;;;;;1794751;78;20518;-80
2021/07/11 02:38:38;;;;;;;;;;;28.80;97.10;;;;;;1760241;78;20182;-81
2021/07/11 02:41:08;;;;;;;;;;;29.10;96.70;;;;;;1810140;77;20200;-81
2021/07/11 02:43:38;;;;;;;;;;;29.30;96.60;;;;;;1795798;78;20219;-79
2021/07/11 02:46:09;;;;;;;;;;;29.50;95.00;;;;;;1809220;78;20169;-80
2021/07/11 02:48:39;;;;;;;;;;;29.60;94.50;;;;;;1840695;76;20168;-81
2021/07/11 02:51:10;;;;;;;;;;;29.70;95.10;;;;;;1832372;76;20217;-79
2021/07/11 02:53:41;;;;;;;;;;;29.80;95.00;;;;;;1820980;77;20209;-79
2021/07/11 02:56:12;;;;;;;;;;;29.90;95.50;;;;;;1831634;76;20151;-81
2021/07/11 02:58:43;;;;;;;;;;;30.00;94.60;;;;;;1827576;76;20222;-79
2021/07/11 03:01:13;;;;;;;;;;;30.00;94.60;;;;;;1834239;76;20403;-78
2021/07/11 03:03:44;;;;;;;;;;;30.10;95.00;;;;;;1829936;76;20493;-77
2021/07/11 03:06:32;;;;;;;;;;;30.20;94.60;;;;;;1833721;76;20132;-77
2021/07/11 03:09:03;;;;;;;;;;;30.40;93.90;;;;;;1805542;78;20250;-80
2021/07/11 03:11:34;;;;;;;;;;;30.60;94.70;;;;;;1806759;77;20202;-80
2021/07/11 03:14:04;;;;;;;;;;;30.70;93.80;;;;;;1799945;77;20192;-80
2021/07/11 03:16:34;;;;;;;;;;;30.80;93.60;;;;;;1797470;78;20167;-80
2021/07/11 03:19:04;;;;;;;;;;;30.80;92.60;;;;;;1794863;78;20206;-79
2021/07/11 03:21:34;;;;;;;;;;;30.80;93.00;;;;;;1805455;78;20196;-79
2021/07/11 03:24:05;;;;;;;;;;;30.80;92.30;;;;;;1807116;77;20227;-79
2021/07/11 03:26:39;;;;;;;;;;;30.70;92.70;;;;;;1807340;77;20243;-79
2021/07/11 03:29:09;;;;;;;;;;;30.60;92.50;;;;;;1786419;78;20172;-81
2021/07/11 03:31:40;;;;;;;;;;;30.60;93.40;;;;;;1810757;78;20167;-81
2021/07/11 03:34:14;;;;;;;;;;;30.60;92.80;;;;;;1782632;78;20207;-81
2021/07/11 03:36:45;;;;;;;;;;;30.50;92.80;;;;;;1743562;80;20185;-81
2021/07/11 03:39:15;;;;;;;;;;;30.50;92.10;;;;;;1790578;78;20304;-80
2021/07/11 03:41:45;;;;;;;;;;;30.60;92.10;;;;;;1798304;77;20226;-82
2021/07/11 03:44:15;;;;;;;;;;;30.70;92.00;;;;;;1802858;77;20283;-80
2021/07/11 03:46:47;;;;;;;;;;;30.70;92.50;;;;;;1809319;78;20216;-80
2021/07/11 03:49:21;;;;;;;;;;;30.90;92.20;;;;;;1822413;77;20272;-80
2021/07/11 03:51:51;;;;;;;;;;;30.90;92.80;;;;;;1805618;78;20467;-79
2021/07/11 03:54:21;;;;;;;;;;;30.90;90.90;;;;;;1792348;77;20148;-80
2021/07/11 03:56:51;;;;;;;;;;;31.00;91.60;;;;;;1803889;77;20191;-81
2021/07/11 03:59:22;;;;;;;;;;;31.10;91.20;;;;;;1790711;78;20178;-81
2021/07/11 04:01:52;;;;;;;;;;;31.30;91.50;;;;;;1802451;77;20208;-78
2021/07/11 04:04:23;;;;;;;;;;;31.40;91.60;;;;;;1805066;78;20197;-80
2021/07/11 04:06:53;;;;;;;;;;;31.50;90.20;;;;;;1795026;77;20188;-80
2021/07/11 04:09:27;;;;;;;;;;;31.60;87.50;;;;;;1805436;78;20449;-80
2021/07/11 04:11:56;;;;;;;;;;;31.80;90.00;;;;;;1803063;77;20396;-81
2021/07/11 04:14:26;;;;;;;;;;;32.00;89.10;;;;;;1796874;78;20464;-80
2021/07/11 04:17:01;;;;;;;;;;;32.00;87.10;;;;;;1813653;78;20125;-79
2021/07/11 04:19:31;;;;;;;;;;;32.10;85.80;;;;;;1814309;78;20168;-80
2021/07/11 04:22:02;;;;;;;;;;;32.20;87.80;;;;;;1809010;78;20196;-79
2021/07/11 04:24:31;;;;;;;;;;;32.20;84.80;;;;;;1789379;78;20238;-79
2021/07/11 04:27:01;;;;;;;;;;;32.40;83.50;;;;;;1783743;79;20237;-80
2021/07/11 04:29:33;;;;;;;;;;;32.50;83.50;;;;;;1745227;80;20190;-80
2021/07/11 04:32:02;;;;;;;;;;;32.40;81.90;;;;;;1771734;79;20198;-81
2021/07/11 04:34:37;;;;;;;;;;;32.40;83.00;;;;;;1763279;79;20263;-81
2021/07/11 04:37:05;;;;;;;;;;;32.20;84.60;;;;;;1779062;79;20240;-82
2021/07/11 04:39:35;;;;;;;;;;;32.00;85.00;;;;;;1791493;78;20164;-82
2021/07/11 04:42:06;;;;;;;;;;;31.80;88.00;;;;;;1802869;78;20145;-81
2021/07/11 04:44:35;;;;;;;;;;;31.80;87.10;;;;;;1804152;79;20223;-83
2021/07/11 04:47:06;;;;;;;;;;;31.80;88.20;;;;;;1791483;78;20215;-83
2021/07/11 04:49:36;;;;;;;;;;;31.90;87.00;;;;;;1806737;78;20172;-82
2021/07/11 04:52:06;;;;;;;;;;;32.00;84.50;;;;;;1809146;78;20454;-83
2021/07/11 04:54:36;;;;;;;;;;;32.20;85.10;;;;;;1750700;80;20244;-82
2021/07/11 04:57:06;;;;;;;;;;;32.40;84.20;;;;;;1756698;80;20184;-82
2021/07/11 04:59:37;;;;;;;;;;;32.60;86.10;;;;;;1760274;81;20244;-82
2021/07/11 05:02:07;;;;;;;;;;;32.80;82.50;;;;;;1752045;80;20182;-82
2021/07/11 05:04:36;;;;;;;;;;;32.80;81.30;;;;;;1747307;81;20165;-83
2021/07/11 05:07:06;;;;;;;;;;;32.80;80.90;;;;;;1747355;80;20655;-83
2021/07/11 05:09:36;;;;;;;;;;;32.70;82.60;;;;;;1793297;79;20227;-82
2021/07/11 05:12:12;;;;;;;;;;;32.70;80.90;;;;;;1799485;78;20136;-84
2021/07/11 05:14:41;;;;;;;;;;;32.70;82.40;;;;;;1792416;78;20204;-83
2021/07/11 05:17:12;;;;;;;;;;;32.70;81.50;;;;;;1786889;79;20137;-82
2021/07/11 05:19:43;;;;;;;;;;;32.80;81.80;;;;;;1767475;79;20213;-82
2021/07/11 05:22:15;;;;;;;;;;;32.80;80.80;;;;;;1764846;80;20430;-82
2021/07/11 05:24:50;;;;;;;;;;;32.70;81.60;;;;;;1769328;79;20228;-81
2021/07/11 05:27:27;;;;;;;;;;;32.60;81.00;;;;;;1741255;80;20291;-82
2021/07/11 05:29:57;;;;;;;;;;;32.50;82.00;;;;;;1738930;80;20223;-80
2021/07/11 05:32:28;;;;;;;;;;;32.40;83.60;;;;;;1732583;81;20193;-82
2021/07/11 05:35:01;;;;;;;;;;;32.30;83.00;;;;;;1743979;80;20215;-80
2021/07/11 05:37:32;;;;;;;;;;;32.30;82.60;;;;;;1759160;80;20265;-83
2021/07/11 05:40:19;;;;;;;;;;;32.40;85.20;;;;;;1787631;79;20519;-82
2021/07/11 05:43:34;;;;;;;;;;;32.40;83.70;;;;;;1801534;78;20458;-82
2021/07/11 05:45:43;;;;;;;;;;;32.40;82.20;;;;;;1793291;77;20170;-83
2021/07/11 05:48:15;;;;;;;;;;;32.40;81.50;;;;;;1789713;79;20194;-83
2021/07/11 05:50:52;;;;;;;;;;;32.50;80.20;;;;;;1781288;79;20567;-83
2021/07/11 05:53:23;;;;;;;;;;;32.60;81.70;;;;;;1797157;78;20248;-80
2021/07/11 05:55:53;;;;;;;;;;;32.70;80.30;;;;;;1814903;78;20631;-82
2021/07/11 05:58:29;;;;;;;;;;;32.80;80.40;;;;;;1811903;78;20204;-83
2021/07/11 06:01:00;;;;;;;;;;;32.80;79.80;;;;;;1804630;77;20249;-82
2021/07/11 06:03:30;;;;;;;;;;;32.90;80.40;;;;;;1801044;77;20425;-83
2021/07/11 06:06:00;;;;;;;;;;;32.90;81.30;;;;;;1812607;76;20220;-81
2021/07/11 06:08:30;;;;;;;;;;;32.90;80.60;;;;;;1818100;77;20223;-82
2021/07/11 06:11:00;;;;;;;;;;;32.90;80.90;;;;;;1795632;77;20121;-81
2021/07/11 06:13:31;;;;;;;;;;;33.10;81.50;;;;;;1813952;77;20218;-82
2021/07/11 06:16:00;;;;;;;;;;;33.00;80.30;;;;;;1830950;77;20216;-82
2021/07/11 06:18:30;;;;;;;;;;;32.90;80.50;;;;;;1815222;77;20125;-80
2021/07/11 06:21:00;;;;;;;;;;;32.90;81.90;;;;;;1819309;77;20180;-81
2021/07/11 06:23:30;;;;;;;;;;;33.00;80.40;;;;;;1754424;81;20177;-81
2021/07/11 06:26:00;;;;;;;;;;;33.00;80.80;;;;;;1760049;80;20168;-81
2021/07/11 06:28:30;;;;;;;;;;;32.90;81.00;;;;;;1756319;79;20219;-83
2021/07/11 06:31:00;;;;;;;;;;;33.00;79.50;;;;;;1762845;79;20139;-80
2021/07/11 06:33:30;;;;;;;;;;;33.00;79.70;;;;;;1795808;77;20215;-79
2021/07/11 06:36:00;;;;;;;;;;;33.00;79.60;;;;;;1802051;78;20199;-80
2021/07/11 06:38:30;;;;;;;;;;;33.00;78.20;;;;;;1807469;78;20489;-81
2021/07/11 06:41:00;;;;;;;;;;;33.00;79.10;;;;;;1790988;77;20239;-79
2021/07/11 06:43:30;;;;;;;;;;;33.10;82.10;;;;;;1787897;78;20203;-81
2021/07/11 06:46:00;;;;;;;;;;;33.10;78.30;;;;;;1794968;77;20243;-80
2021/07/11 06:48:31;;;;;;;;;;;33.10;77.00;;;;;;1795058;77;20184;-80
2021/07/11 06:51:01;;;;;;;;;;;33.10;78.20;;;;;;1802118;77;20242;-79
2021/07/11 06:53:31;;;;;;;;;;;33.10;78.30;;;;;;1752297;80;20161;-79
2021/07/11 06:56:25;;;;;;;;;;;33.10;80.30;;;;;;1770893;79;20254;-79
2021/07/11 06:58:51;;;;;;;;;;;33.10;76.90;;;;;;1771973;79;20254;-80
2021/07/11 07:01:21;;;;;;;;;;;33.10;78.10;;;;;;1793842;78;20971;-80
2021/07/11 07:03:51;;;;;;;;;;;33.00;80.30;;;;;;1791076;79;20259;-79
2021/07/11 07:06:21;;;;;;;;;;;33.10;79.40;;;;;;1792956;78;20685;-80
2021/07/11 07:08:52;;;;;;;;;;;33.10;78.50;;;;;;1788887;79;20457;-78
2021/07/11 07:11:22;;;;;;;;;;;33.10;76.40;;;;;;1802973;78;20168;-80
2021/07/11 07:13:51;;;;;;;;;;;33.10;80.20;;;;;;1785848;79;20505;-79
2021/07/11 07:16:21;;;;;;;;;;;33.10;76.30;;;;;;1787354;78;20202;-79
2021/07/11 07:18:53;;;;;;;;;;;33.20;76.90;;;;;;1793850;78;20221;-79
2021/07/11 07:21:22;;;;;;;;;;;33.30;77.50;;;;;;1795152;79;20161;-78
2021/07/11 07:23:52;;;;;;;;;;;33.20;75.10;;;;;;1789150;78;20137;-79
2021/07/11 07:26:24;;;;;;;;;;;33.30;76.00;;;;;;1772359;79;20937;-79
2021/07/11 07:28:53;;;;;;;;;;;33.30;74.90;;;;;;1755588;81;20197;-79
2021/07/11 07:31:23;;;;;;;;;;;33.30;75.60;;;;;;1788170;78;20256;-80
2021/07/11 07:33:53;;;;;;;;;;;33.20;75.70;;;;;;1780158;79;20226;-81
2021/07/11 07:36:25;;;;;;;;;;;33.20;75.80;;;;;;1759790;79;20489;-79
2021/07/11 07:38:58;;;;;;;;;;;33.20;79.20;;;;;;1749114;80;20237;-77
2021/07/11 07:41:27;;;;;;;;;;;33.20;76.90;;;;;;1767921;80;20215;-79
2021/07/11 07:44:06;;;;;;;;;;;33.10;75.50;;;;;;1739258;80;20165;-79
2021/07/11 07:46:29;;;;;;;;;;;33.10;77.90;;;;;;1778176;79;20166;-79
2021/07/11 07:48:59;;;;;;;;;;;33.10;75.50;;;;;;1795702;78;20139;-79
2021/07/11 07:51:29;;;;;;;;;;;33.10;73.20;;;;;;1811387;78;20452;-80
2021/07/11 07:53:58;;;;;;;;;;;33.10;73.40;;;;;;1806683;78;20140;-80
2021/07/11 07:56:28;;;;;;;;;;;33.10;76.20;;;;;;1805357;78;20279;-80
2021/07/11 07:58:58;;;;;;;;;;;33.10;74.70;;;;;;1792765;78;20492;-79
2021/07/11 08:01:28;;;;;;;;;;;33.20;75.00;;;;;;1814698;78;20186;-80
2021/07/11 08:03:59;;;;;;;;;;;33.20;77.30;;;;;;1810356;78;20192;-80
2021/07/11 08:06:29;;;;;;;;;;;33.10;75.60;;;;;;1810683;78;20220;-81
2021/07/11 08:08:58;;;;;;;;;;;33.10;75.70;;;;;;1788645;78;20180;-80
2021/07/11 08:11:33;;;;;;;;;;;33.10;75.40;;;;;;1814016;78;20196;-79
2021/07/11 08:13:59;;;;;;;;;;;33.10;78.00;;;;;;1795438;78;20475;-80
2021/07/11 08:16:29;;;;;;;;;;;33.00;75.30;;;;;;1810148;78;20207;-80
2021/07/11 08:18:59;;;;;;;;;;;33.00;73.70;;;;;;1802215;78;20137;-80
2021/07/11 08:21:29;;;;;;;;;;;33.00;74.60;;;;;;1809259;78;20212;-80
2021/07/11 08:24:03;;;;;;;;;;;33.00;75.10;;;;;;1806899;78;20169;-80
2021/07/11 08:26:32;;;;;;;;;;;33.10;77.40;;;;;;1793321;78;20224;-81
2021/07/11 08:29:06;;;;;;;;;;;33.10;76.30;;;;;;1814328;77;20190;-80
2021/07/11 08:31:42;;;;;;;;;;;33.10;76.50;;;;;;1824027;77;20167;-81
2021/07/11 08:34:11;;;;;;;;;;;33.10;74.90;;;;;;1803955;78;20478;-79
2021/07/11 08:36:41;;;;;;;;;;;33.10;75.20;;;;;;1822954;77;20223;-79
2021/07/11 08:39:12;;;;;;;;;;;33.10;75.90;;;;;;1804367;78;20376;-81
2021/07/11 08:41:42;;;;;;;;;;;33.10;77.40;;;;;;1763458;79;20151;-80
2021/07/11 08:44:15;;;;;;;;;;;33.00;77.20;;;;;;1756661;79;20284;-83
2021/07/11 08:46:46;;;;;;;;;;;32.90;77.10;;;;;;1759193;81;20239;-80
2021/07/11 08:49:16;;;;;;;;;;;32.90;77.80;;;;;;1767959;80;20622;-79
2021/07/11 08:51:46;;;;;;;;;;;32.80;78.30;;;;;;1770898;79;20247;-80
2021/07/11 08:54:16;;;;;;;;;;;32.80;78.70;;;;;;1761522;80;20232;-81
2021/07/11 08:56:46;;;;;;;;;;;32.80;78.30;;;;;;1762825;79;20212;-80
2021/07/11 08:59:15;;;;;;;;;;;32.70;79.20;;;;;;1743868;80;20296;-82
2021/07/11 09:01:45;;;;;;;;;;;32.60;79.40;;;;;;1748332;80;20233;-80
2021/07/11 09:04:18;;;;;;;;;;;32.60;78.80;;;;;;1751503;80;20248;-79
2021/07/11 09:06:49;;;;;;;;;;;32.60;79.00;;;;;;1778228;79;20203;-80
2021/07/11 09:09:20;;;;;;;;;;;32.50;79.90;;;;;;1735106;80;20634;-80
2021/07/11 09:11:52;;;;;;;;;;;32.50;79.90;;;;;;1759969;80;20172;-81
2021/07/11 09:14:23;;;;;;;;;;;32.60;79.20;;;;;;1770160;79;20696;-80
2021/07/11 09:16:55;;;;;;;;;;;32.50;79.10;;;;;;1772773;79;20276;-81
2021/07/11 09:19:30;;;;;;;;;;;32.50;80.20;;;;;;1737669;80;20191;-79
2021/07/11 09:22:01;;;;;;;;;;;32.40;80.10;;;;;;1759245;80;20189;-80
2021/07/11 09:24:33;;;;;;;;;;;32.40;80.70;;;;;;1746339;80;20228;-81
2021/07/11 09:27:03;;;;;;;;;;;32.40;80.40;;;;;;1760021;80;20519;-79
2021/07/11 09:29:33;;;;;;;;;;;32.30;80.80;;;;;;1772876;79;20550;-80
2021/07/11 09:32:05;;;;;;;;;;;32.40;81.10;;;;;;1759691;80;20357;-79
2021/07/11 09:34:36;;;;;;;;;;;32.30;80.00;;;;;;1796612;78;20208;-81
2021/07/11 09:37:07;;;;;;;;;;;32.20;80.40;;;;;;1775810;77;20280;-81
2021/07/11 09:39:39;;;;;;;;;;;32.20;81.10;;;;;;1740325;80;20490;-80
2021/07/11 09:42:09;;;;;;;;;;;32.20;80.90;;;;;;1758494;80;20271;-80
2021/07/11 09:44:39;;;;;;;;;;;32.20;80.90;;;;;;1745145;80;20191;-79
2021/07/11 09:47:10;;;;;;;;;;;32.20;81.50;;;;;;1748202;81;20188;-79
2021/07/11 09:49:44;;;;;;;;;;;32.10;81.40;;;;;;1746483;80;20939;-81
2021/07/11 09:52:20;;;;;;;;;;;32.10;82.10;;;;;;1743862;81;20186;-80
2021/07/11 09:55:08;;;;;;;;;;;32.10;81.70;;;;;;1799421;78;20212;-79
2021/07/11 09:57:40;;;;;;;;;;;32.00;81.60;;;;;;1768170;79;20145;-79
2021/07/11 10:00:14;;;;;;;;;;;32.10;81.80;;;;;;1737201;81;20514;-81
2021/07/11 10:02:47;;;;;;;;;;;32.00;81.60;;;;;;1762087;80;20214;-80
2021/07/11 10:05:19;;;;;;;;;;;32.00;82.10;;;;;;1794183;79;20319;-80
2021/07/11 10:07:50;;;;;;;;;;;32.00;82.40;;;;;;1788258;78;20202;-79
2021/07/11 10:10:21;;;;;;;;;;;32.00;82.10;;;;;;1794746;78;20303;-79
2021/07/11 10:12:52;;;;;;;;;;;32.00;82.30;;;;;;1811398;77;20240;-80
2021/07/11 10:15:25;;;;;;;;;;;32.00;82.70;;;;;;1795456;77;20186;-78
2021/07/11 10:17:56;;;;;;;;;;;32.00;82.70;;;;;;1780841;79;20225;-77
2021/07/11 10:20:28;;;;;;;;;;;31.90;83.00;;;;;;1769120;80;20160;-80
2021/07/11 10:22:58;;;;;;;;;;;31.90;83.00;;;;;;1752491;80;20478;-80
2021/07/11 10:25:30;;;;;;;;;;;31.90;83.30;;;;;;1754356;80;20292;-80
2021/07/11 10:28:05;;;;;;;;;;;31.80;83.40;;;;;;1754227;81;20695;-80
2021/07/11 10:30:33;;;;;;;;;;;31.80;83.70;;;;;;1733292;80;20304;-79
2021/07/11 10:33:04;;;;;;;;;;;31.80;83.70;;;;;;1742065;80;20236;-80
2021/07/11 10:35:34;;;;;;;;;;;31.80;84.10;;;;;;1769285;79;20178;-79
2021/07/11 10:38:04;;;;;;;;;;;31.80;84.40;;;;;;1791582;78;20176;-79
2021/07/11 10:40:34;;;;;;;;;;;31.70;84.30;;;;;;1794480;78;20231;-79
2021/07/11 10:43:05;;;;;;;;;;;31.70;84.60;;;;;;1794531;78;20240;-79
2021/07/11 10:45:36;;;;;;;;;;;31.70;84.80;;;;;;1759487;78;20284;-79
2021/07/11 10:48:06;;;;;;;;;;;31.70;84.90;;;;;;1744977;80;20225;-79
2021/07/11 10:50:35;;;;;;;;;;;31.70;85.00;;;;;;1744175;80;20283;-79
2021/07/11 10:53:07;;;;;;;;;;;31.70;84.80;;;;;;1765145;79;20229;-80
2021/07/11 10:55:42;;;;;;;;;;;31.70;85.10;;;;;;1755805;80;20196;-80
2021/07/11 10:58:11;;;;;;;;;;;31.70;85.20;;;;;;1751299;79;20226;-80
2021/07/11 11:00:41;;;;;;;;;;;31.60;85.30;;;;;;1775963;79;20178;-80
2021/07/11 11:03:12;;;;;;;;;;;31.60;85.40;;;;;;1751316;80;20272;-79
2021/07/11 11:05:42;;;;;;;;;;;31.70;85.80;;;;;;1734815;80;20567;-79
2021/07/11 11:08:13;;;;;;;;;;;31.60;86.00;;;;;;1733818;80;20253;-81
2021/07/11 11:10:47;;;;;;;;;;;31.60;85.80;;;;;;1753193;81;20169;-79
2021/07/11 11:13:20;;;;;;;;;;;31.60;86.10;;;;;;1747989;80;20436;-80
2021/07/11 11:15:51;;;;;;;;;;;31.60;86.00;;;;;;1768367;80;20551;-80
2021/07/11 11:18:21;;;;;;;;;;;31.60;86.30;;;;;;1735147;81;20257;-79
2021/07/11 11:20:53;;;;;;;;;;;31.50;86.40;;;;;;1737252;80;20184;-79
2021/07/11 11:23:23;;;;;;;;;;;31.50;86.70;;;;;;1754124;80;20184;-79
2021/07/11 11:25:53;;;;;;;;;;;31.50;87.00;;;;;;1758587;79;20244;-80
2021/07/11 11:28:26;;;;;;;;;;;31.40;87.30;;;;;;1758054;79;20230;-79
2021/07/11 11:30:56;;;;;;;;;;;31.40;87.20;;;;;;1747637;81;20251;-79
2021/07/11 11:33:27;;;;;;;;;;;31.30;88.30;;;;;;1752330;81;20172;-79
2021/07/11 11:35:56;;;;;;;;;;;31.10;88.60;;;;;;1741903;81;20573;-80
2021/07/11 11:38:26;;;;;;;;;;;31.00;89.50;;;;;;1751385;81;20210;-80
2021/07/11 11:40:56;;;;;;;;;;;30.90;91.20;;;;;;1753006;81;20161;-80
2021/07/11 11:43:25;;;;;;;;;;;30.80;91.40;;;;;;1761698;80;20187;-80
2021/07/11 11:45:58;;;;;;;;;;;30.60;91.70;;;;;;1776461;80;20504;-79
2021/07/11 11:48:31;;;;;;;;;;;30.40;91.90;;;;;;1744306;81;20213;-80
2021/07/11 11:51:02;;;;;;;;;;;30.30;92.90;;;;;;1745622;81;20255;-80
2021/07/11 11:53:33;;;;;;;;;;;30.20;93.10;;;;;;1750440;81;20305;-79
2021/07/11 11:56:03;;;;;;;;;;;30.00;93.20;;;;;;1750129;80;20197;-80
2021/07/11 11:58:33;;;;;;;;;;;29.80;93.50;;;;;;1755382;81;20202;-79
2021/07/11 12:01:04;;;;;;;;;;;29.70;93.50;;;;;;1747798;80;20233;-78
2021/07/11 12:03:38;;;;;;;;;;;29.60;93.70;;;;;;1753124;80;20211;-79
2021/07/11 12:06:06;;;;;;;;;;;29.50;93.80;;;;;;1758087;80;20216;-79
2021/07/11 12:08:37;;;;;;;;;;;29.40;93.80;;;;;;1748009;80;20201;-79
2021/07/11 12:11:07;;;;;;;;;;;29.40;93.90;;;;;;1749276;81;20782;-79
2021/07/11 12:13:38;;;;;;;;;;;29.30;94.30;;;;;;1740483;81;20166;-80
2021/07/11 12:16:12;;;;;;;;;;;29.30;94.40;;;;;;1752262;81;20211;-78
2021/07/11 12:18:41;;;;;;;;;;;29.20;94.90;;;;;;1787752;78;20462;-81
2021/07/11 12:21:12;;;;;;;;;;;29.20;94.90;;;;;;1774733;79;20253;-81
2021/07/11 12:23:41;;;;;;;;;;;29.10;94.90;;;;;;1784880;78;20662;-91
2021/07/11 12:26:14;;;;;;;;;;;29.10;95.20;;;;;;1791000;79;20263;-91
2021/07/11 12:28:45;;;;;;;;;;;29.10;94.80;;;;;;1804673;78;20553;-92
2021/07/11 12:31:15;;;;;;;;;;;29.00;95.00;;;;;;1785576;78;20226;-90
2021/07/11 12:33:53;;;;;;;;;;;29.00;94.90;;;;;;1787030;78;20191;-93
2021/07/11 12:36:31;;;;;;;;;;;;;;;;;;;;;
2021/07/11 12:38:59;;;;;;;;;;;28.90;95.00;;;;;;1788726;78;20252;-91
2021/07/11 12:41:30;;;;;;;;;;;28.90;95.00;;;;;;1759859;80;20228;-92
2021/07/11 12:46:40;;;;;;;;;;;28.90;95.20;;;;;;1776702;77;20742;-92
2021/07/11 12:49:14;;;;;;;;;;;28.90;95.30;;;;;;1833140;74;20138;-91
2021/07/11 12:51:52;;;;;;;;;;;28.90;94.90;;;;;;1860280;74;20253;-91
2021/07/11 12:54:28;;;;;;;;;;;28.90;94.70;;;;;;1897375;74;20380;-93
2021/07/11 12:56:57;;;;;;;;;;;28.90;94.80;;;;;;1886823;74;20174;-91
2021/07/11 12:59:38;;;;;;;;;;;28.90;95.40;;;;;;1881099;75;20299;-92
2021/07/11 13:02:04;;;;;;;;;;;28.90;94.70;;;;;;1872701;74;20176;-92
2021/07/11 13:04:36;;;;;;;;;;;28.90;94.60;;;;;;1880709;74;20232;-92
2021/07/11 13:07:07;;;;;;;;;;;28.90;94.60;;;;;;1878135;75;20187;-90
2021/07/11 13:09:47;;;;;;;;;;;28.90;94.60;;;;;;1880281;74;20242;-92
2021/07/11 13:12:18;;;;;;;;;;;28.80;94.70;;;;;;1880069;75;20186;-92
2021/07/11 13:14:51;;;;;;;;;;;28.80;94.90;;;;;;1875456;74;20207;-92
2021/07/11 13:17:22;;;;;;;;;;;28.80;94.70;;;;;;1876630;75;20186;-92
2021/07/11 13:19:53;;;;;;;;;;;28.80;94.80;;;;;;1879205;74;20514;-92
2021/07/11 13:22:25;;;;;;;;;;;28.80;94.70;;;;;;1881351;74;20547;-92
2021/07/11 13:24:56;;;;;;;;;;;28.80;94.80;;;;;;1888300;74;20135;-92
2021/07/11 13:27:26;;;;;;;;;;;28.80;95.00;;;;;;1891177;74;20210;-92
2021/07/11 13:29:58;;;;;;;;;;;28.80;94.90;;;;;;1889528;74;20182;-92
2021/07/11 13:32:28;;;;;;;;;;;28.80;95.10;;;;;;1892438;73;20224;-93
2021/07/11 13:35:07;;;;;;;;;;;28.80;95.10;;;;;;1874913;73;20266;-91
2021/07/11 13:37:39;;;;;;;;;;;28.80;95.10;;;;;;1892997;74;20190;-92
2021/07/11 13:40:14;;;;;;;;;;;28.80;94.90;;;;;;1886662;74;20236;-92
2021/07/11 13:43:15;;;;;;;;;;;28.80;95.10;;;;;;1886840;73;20206;-93
2021/07/11 13:45:48;;;;;;;;;;;28.90;95.10;;;;;;1881330;74;20174;-92
2021/07/11 13:48:14;;;;;;;;;;;28.90;94.90;;;;;;1887196;75;20806;-93
2021/07/11 13:50:45;;;;;;;;;;;28.90;94.80;;;;;;1885701;74;20461;-93
2021/07/11 13:53:19;;;;;;;;;;;29.00;94.80;;;;;;1889743;75;20224;-93
2021/07/11 13:55:49;;;;;;;;;;;29.00;95.00;;;;;;1881033;74;20210;-92
2021/07/11 13:58:19;;;;;;;;;;;29.10;95.30;;;;;;1875602;74;20652;-90
2021/07/11 14:00:50;;;;;;;;;;;29.10;95.30;;;;;;1889021;74;20181;-91
2021/07/11 14:03:20;;;;;;;;;;;29.10;95.10;;;;;;1882762;74;20231;-91
2021/07/11 14:05:49;;;;;;;;;;;29.10;95.30;;;;;;1868461;75;20473;-91
2021/07/11 14:08:19;;;;;;;;;;;29.00;95.30;;;;;;1872586;75;20125;-92
2021/07/11 14:10:49;;;;;;;;;;;29.00;95.40;;;;;;1861883;75;20198;-91
2021/07/11 14:13:21;;;;;;;;;;;29.00;95.10;;;;;;1888947;74;20159;-93
2021/07/11 14:15:52;;;;;;;;;;;29.00;95.00;;;;;;1888275;75;20193;-89
2021/07/11 14:18:31;;;;;;;;;;;29.10;94.60;;;;;;1877886;75;20181;-92
2021/07/11 14:21:04;;;;;;;;;;;29.10;94.10;;;;;;1894057;74;20216;-90
2021/07/11 14:23:51;;;;;;;;;;;29.10;93.90;;;;;;1903732;74;20191;-91
2021/07/11 14:26:32;;;;;;;;;;;29.10;93.80;;;;;;1899571;73;20287;-91
2021/07/11 14:29:02;;;;;;;;;;;29.10;93.90;;;;;;1868441;75;20165;-92
2021/07/11 14:31:40;;;;;;;;;;;29.20;94.30;;;;;;1882029;75;20570;-90
2021/07/11 14:37:08;;;;;;;;;;;29.20;94.30;;;;;;1882272;73;20185;-92
2021/07/11 14:39:51;;;;;;;;;;;29.20;94.20;;;;;;1871647;75;20174;-90
2021/07/11 14:45:07;;;;;;;;;;;29.20;94.00;;;;;;1802489;78;20177;-92
2021/07/11 14:47:44;;;;;;;;;;;29.20;93.80;;;;;;1795097;78;20120;-91
2021/07/11 14:50:33;;;;;;;;;;;29.10;93.70;;;;;;1765304;79;20214;-92